メインページ
METAR-TAF:

METAR-TAF

空港 :

シドニー, オーストラリア

シドニー国際空港

緯度: 33-57S, 経度: 151-11E, 海抜: 6m

現時点の気象観測

当レポートは21分前の16:00(UTC)に作成
北/北東の風 7kt
気温 23°C
湿度 78%
気圧 1011 hPa
視程10km以上
1,500メートル以下は雲なし、積乱雲なし

METAR: YSSY 231600Z 03007KT CAVOK 23/19 Q1011 NOSIG

時間: 03:21 (16:21 UTC)

予報

当レポートは5時間16分前の11:05(UTC)に作成
予報は23日の 12時(UTC)から 24日の 18時(UTC)まで有効
北/北東の風 12kt
視程10km以上
高度1500ftの雲はほとんどない
23日の 1600時(UTC)から
の風 8kt
視程10km以上
高度2000ftの雲はほとんどない
23日の 2300時(UTC)から
の風 14kt
視程10km以上
1,500メートル以下は雲なし、積乱雲なし
24日の 0400時(UTC)から
北/北東の風 18kt、最大28ktの突風を伴う
視程10km以上
高度4500ftの雲は散在している
弱いにわか雨
24日の 0900時(UTC)から
の風 12kt
視程10km以上
高度1200ftの雲はほとんどない

TAF: YSSY 231105Z 2312/2418 02012KT 9999 FEW015 FM231600 35008KT 9999 FEW020 FM232300 01014KT CAVOK FM240400 03018G28KT 9999 -SHRA SCT045 FM240900 01012KT 9999 FEW012

4,000以上の空港の気象観測と天気予報(METAR報とTAF報)

利用可能な観測所は地図上に黄色い丸と赤い丸で示す。

丸の上にカーソルを重ねると観測所名を参照できる。

次にクリックすると気象観測と天気予報を参照できる。

マップの切り替え:黒色「×」印の緑ボタンをクリックして拡大、「-」印の緑ボタンをクリックして縮小、緑色の三角印をクリックして隣りの地図に切り替え


METAR-TAF: